SBAU

Aracatuba Airport

Airport
ICAO code
SBAU
IATA Code
ARU
Summary
ICAO Region
CARSAM
ICAO Territory
Location

Aracatuba, Sao Paulo

Serving
Aracatuba
Elevation
1361 ft
Coordinates
21° 8' 39" S , 50° 25' 35" W
KCC
Metar
SBAU 141300Z 08012KT CAVOK 24/13 Q1019

Dario Guarita–Araçatuba State Airport is the airport serving Araçatuba, Brazil.

Climatology

Tropical savanna climate (Köppen climate classification Aw)

Runways

Designator Length Width Surface Rops
5/23 2120 35 ASP No/No

Airport map

Aerial View

SKYbrary Partners:

Safety knowledge contributed by: